Queen Of Nanaimo — VCNX — position and weather

sailwx.info

Track history (hours):
 
Tides and Currents Weather Stations Pressure Air Temp Water Temp Dewpoint Dewpoint Depression Visibility Wind Speed Wind Dir Waves Ship Positions

Queen Of Nanaimo

Last reported at 2014-Sep-30 05:13 UTC. Time now 2014-Sep-30 12:04 UTC.
Position N 48°51' W 123°26'.

Length 130 m; draft 4 m.

Type: Ship. MMSI: 316001254.

Date/timePositionNaut miles runAvg speedWind from/ knotsBaromVisibWave heightAir tempDewpointWater temp
2014-Sep-30 05:13N 48°51' W 123°26'5 6.0
2014-Sep-30 04:22N 48°48' W 123°20'4 5.5
2014-Sep-30 03:33N 48°52' W 123°18'10 9.8
2014-Sep-30 02:33N 48°60' W 123°09'1 1.0
2014-Sep-30 01:33N 49°00' W 123°08'11 8.9
2014-Sep-30 00:22N 48°53' W 123°19'2 2.4
2014-Sep-29 23:31N 48°51' W 123°20'4 1.4
2014-Sep-29 20:19N 48°51' W 123°27'6 7.3
2014-Sep-29 19:29N 48°48' W 123°19'4 4.0
2014-Sep-29 18:34N 48°52' W 123°19'9 8.8
2014-Sep-29 17:33N 48°59' W 123°11'3 2.6
2014-Sep-29 16:33N 49°00' W 123°08'1110.5
2014-Sep-29 15:33N 48°52' W 123°18'2 1.9
2014-Sep-29 14:30N 48°51' W 123°20'3 3.5
2014-Sep-29 13:32N 48°50' W 123°25'2 0.4
2014-Sep-29 09:14N 48°51' W 123°27'0 0.0
2014-Sep-29 06:04N 48°51' W 123°27'611.0
2014-Sep-29 05:34N 48°52' W 123°18'1110.9
2014-Sep-29 04:33N 49°00' W 123°08'1211.7
2014-Sep-29 03:31N 48°52' W 123°21'2 1.7
2014-Sep-29 02:33N 48°52' W 123°18'1110.6
2014-Sep-29 01:33N 49°00' W 123°08'8 7.9
2014-Sep-29 00:34N 48°54' W 123°16'5 4.0
2014-Sep-28 23:26N 48°51' W 123°20'5 2.0
2014-Sep-28 21:05N 48°51' W 123°27'610.9
2014-Sep-28 20:33N 48°48' W 123°19'4 3.7
2014-Sep-28 19:33N 48°51' W 123°21'8 8.1
2014-Sep-28 18:33N 48°57' W 123°12'4 4.4
2014-Sep-28 17:33N 49°00' W 123°08'1110.6
2014-Sep-28 16:34N 48°53' W 123°19'2 2.0
2014-Sep-28 15:30N 48°51' W 123°20'4 3.5
2014-Sep-28 14:29N 48°50' W 123°25'1 0.4
2014-Sep-28 11:32N 48°51' W 123°27'0 0.0
2014-Sep-28 06:19N 48°51' W 123°27'5 6.0
2014-Sep-28 05:33N 48°51' W 123°20'4 4.1
2014-Sep-28 04:33N 48°54' W 123°17'9 8.6
2014-Sep-28 03:33N 49°00' W 123°08'0 0.0
2014-Sep-28 02:33N 49°00' W 123°08'1 0.9
2014-Sep-28 01:34N 48°60' W 123°08'10 9.8
2014-Sep-28 00:33N 48°53' W 123°19'5 4.5
2014-Sep-27 23:33N 48°48' W 123°19'5 1.7
2014-Sep-27 20:33N 48°51' W 123°25'1313.1
2014-Sep-27 19:33N 48°59' W 123°10'1 1.5
2014-Sep-27 18:33N 48°57' W 123°11'9 7.8
2014-Sep-27 17:27N 48°51' W 123°20'2 2.2
2014-Sep-27 16:33N 48°53' W 123°19'1110.7
2014-Sep-27 15:33N 49°00' W 123°08'5 4.7
2014-Sep-27 14:34N 48°57' W 123°12'1110.5
2014-Sep-27 13:31N 48°51' W 123°27'0 0.0
2014-Sep-27 10:15N 48°51' W 123°27'0 0.0
2014-Sep-27 09:26N 48°51' W 123°27'0 0.0
2014-Sep-27 08:27N 48°51' W 123°27'0 0.0
2014-Sep-27 06:24N 48°51' W 123°27'1 1.0
2014-Sep-27 05:16N 48°50' W 123°25'5 5.9
2014-Sep-27 04:30N 48°48' W 123°20'5 5.6
2014-Sep-27 03:33N 48°53' W 123°18'1010.0
2014-Sep-27 02:33N 49°00' W 123°08'7 7.5
2014-Sep-27 01:34N 48°55' W 123°15'4 4.0
2014-Sep-27 00:31N 48°52' W 123°19'7 7.7
2014-Sep-26 23:33N 48°58' W 123°13'4 4.2
2014-Sep-26 22:33N 49°00' W 123°08'1413.2
2014-Sep-26 21:30N 48°51' W 123°24'1 0.9
2014-Sep-26 20:09N 48°50' W 123°25'4 6.7
2014-Sep-26 19:30N 48°48' W 123°20'5 5.0
2014-Sep-26 18:34N 48°53' W 123°19'1010.2
2014-Sep-26 17:34N 48°60' W 123°08'0 0.5
2014-Sep-26 16:33N 49°00' W 123°08'1110.6
2014-Sep-26 15:33N 48°53' W 123°19'2 2.0
2014-Sep-26 14:33N 48°51' W 123°20'4 1.5
2014-Sep-26 11:33N 48°51' W 123°27'1 0.2
2014-Sep-26 05:12N 48°50' W 123°25'5 7.0
2014-Sep-26 04:31N 48°48' W 123°19'5 5.1
2014-Sep-26 03:33N 48°53' W 123°19'1010.1
2014-Sep-26 02:33N 48°60' W 123°08'1 0.5
2014-Sep-26 01:33N 49°00' W 123°08'1110.6
2014-Sep-26 00:33N 48°53' W 123°19'2 2.3
2014-Sep-25 23:33N 48°51' W 123°20'3 3.1
2014-Sep-25 22:32N 48°50' W 123°25'4 1.5
2014-Sep-25 19:33N 48°48' W 123°19'4 3.5
2014-Sep-25 18:31N 48°52' W 123°19'9 9.0
2014-Sep-25 17:34N 48°59' W 123°12'3 3.2
2014-Sep-25 16:33N 49°00' W 123°08'1110.6
2014-Sep-25 15:33N 48°53' W 123°19'3 2.6
2014-Sep-25 14:32N 48°50' W 123°20'4 0.8
2014-Sep-25 09:15N 48°51' W 123°27'0 0.0
2014-Sep-25 08:33N 48°51' W 123°27'2 0.5
2014-Sep-25 05:06N 48°50' W 123°25'4 6.5
2014-Sep-25 04:28N 48°48' W 123°19'5 5.3
2014-Sep-25 03:34N 48°53' W 123°19'9 9.2
2014-Sep-25 02:33N 48°59' W 123°09'1 1.4
2014-Sep-25 01:33N 49°00' W 123°08'1110.6
2014-Sep-25 00:33N 48°53' W 123°19'3 2.8
2014-Sep-24 23:32N 48°50' W 123°20'4 4.0
2014-Sep-24 22:26N 48°51' W 123°27'0 0.1
2014-Sep-24 20:25N 48°51' W 123°27'6 6.4
2014-Sep-24 19:29N 48°48' W 123°19'5 5.1
2014-Sep-24 18:34N 48°53' W 123°18'9 9.1
2014-Sep-24 17:33N 48°59' W 123°09'1 1.3
2014-Sep-24 16:34N 49°00' W 123°08'1110.6
2014-Sep-24 15:34N 48°53' W 123°19'2 2.0
2014-Sep-24 14:33N 48°51' W 123°20'4 3.5
2014-Sep-24 13:33N 48°50' W 123°25'2 0.2
2014-Sep-24 05:15N 48°51' W 123°27'6 8.0
2014-Sep-24 04:30N 48°48' W 123°19'5 4.8
2014-Sep-24 03:33N 48°53' W 123°19'9 8.6
2014-Sep-24 02:33N 48°59' W 123°10'2 2.0
2014-Sep-24 01:33N 49°00' W 123°08'1110.6
2014-Sep-24 00:33N 48°53' W 123°19'2 2.0
2014-Sep-23 23:33N 48°51' W 123°20'3 3.3
2014-Sep-23 22:33N 48°49' W 123°24'3 1.0
2014-Sep-23 19:26N 48°48' W 123°19'4 4.2
2014-Sep-23 18:33N 48°51' W 123°21'8 8.2
2014-Sep-23 17:33N 48°58' W 123°13'4 4.5
2014-Sep-23 16:33N 49°00' W 123°08'1110.7
2014-Sep-23 15:33N 48°53' W 123°19'3 2.7
2014-Sep-23 14:31N 48°50' W 123°20'4 3.9
2014-Sep-23 13:32N 48°51' W 123°26'0 0.0
2014-Sep-23 05:07N 48°51' W 123°26'5 8.4
2014-Sep-23 04:30N 48°48' W 123°19'5 5.0
2014-Sep-23 03:34N 48°53' W 123°19'1110.7
2014-Sep-23 02:33N 49°00' W 123°08'8 8.3
2014-Sep-23 01:34N 48°54' W 123°16'4 4.1
2014-Sep-23 00:32N 48°51' W 123°20'3 1.5
2014-Sep-22 22:33N 48°48' W 123°22'3 2.7
2014-Sep-22 21:28N 48°51' W 123°21'4 4.8
2014-Sep-22 20:33N 48°55' W 123°17'1 1.1
2014-Sep-22 19:33N 48°54' W 123°15'1 0.8
2014-Sep-22 18:33N 48°54' W 123°15'4 4.3
2014-Sep-22 17:33N 48°58' W 123°13'4 4.3
2014-Sep-22 16:33N 49°00' W 123°08'1110.5
2014-Sep-22 15:33N 48°52' W 123°18'2 1.9
2014-Sep-22 14:33N 48°51' W 123°20'4 3.7
2014-Sep-22 13:33N 48°50' W 123°25'1 0.5
2014-Sep-22 10:33N 48°51' W 123°27'3 0.5
2014-Sep-22 05:33N 48°51' W 123°23'1313.4
2014-Sep-22 04:33N 49°00' W 123°08'1110.7
2014-Sep-22 03:33N 48°52' W 123°18'1 1.2
2014-Sep-22 02:33N 48°52' W 123°20'1211.8
2014-Sep-22 01:33N 49°00' W 123°08'7 6.6
2014-Sep-22 00:33N 48°55' W 123°14'6 5.7
2014-Sep-21 23:33N 48°52' W 123°21'4 1.3
2014-Sep-21 20:32N 48°48' W 123°19'4 3.6
2014-Sep-21 19:32N 48°52' W 123°20'8 7.7
2014-Sep-21 18:34N 48°57' W 123°12'4 4.3
2014-Sep-21 17:33N 49°00' W 123°08'10 9.6
2014-Sep-21 16:33N 48°53' W 123°18'3 2.6
2014-Sep-21 15:29N 48°51' W 123°20'3 3.7
2014-Sep-21 14:33N 48°49' W 123°24'3 2.9
2014-Sep-21 13:33N 48°51' W 123°27'0 0.0
2014-Sep-21 11:21N 48°51' W 123°27'0 0.0
2014-Sep-21 10:32N 48°51' W 123°27'0 0.0
2014-Sep-21 06:25N 48°51' W 123°27'3 3.7
2014-Sep-21 05:31N 48°51' W 123°22'3 3.4
2014-Sep-21 04:34N 48°53' W 123°18'10 9.8
2014-Sep-21 03:33N 49°00' W 123°08'0 0.0
2014-Sep-21 02:33N 49°00' W 123°08'0 0.0
2014-Sep-21 01:34N 49°00' W 123°08'1110.7
2014-Sep-21 00:33N 48°53' W 123°19'4 3.8
2014-Sep-20 23:33N 48°49' W 123°20'5 3.9
2014-Sep-20 22:18N 48°51' W 123°27'0 0.0
2014-Sep-20 21:25N 48°51' W 123°27'1 1.3
2014-Sep-20 20:32N 48°51' W 123°25'1211.8
2014-Sep-20 19:34N 48°58' W 123°12'2 2.0
2014-Sep-20 18:33N 48°59' W 123°09'11 7.7
2014-Sep-20 17:09N 48°51' W 123°20'2 3.3
2014-Sep-20 16:33N 48°53' W 123°19'1110.7
2014-Sep-20 15:33N 49°00' W 123°08'6 5.9
2014-Sep-20 14:33N 48°56' W 123°13'10 8.6
2014-Sep-20 13:23N 48°51' W 123°27'0 0.0
2014-Sep-20 12:27N 48°51' W 123°27'0 0.0
2014-Sep-20 10:13N 48°51' W 123°27'0 0.0
2014-Sep-20 09:33N 48°51' W 123°27'0 0.0
2014-Sep-20 08:22N 48°51' W 123°27'0 0.0
2014-Sep-20 07:17N 48°51' W 123°27'0 0.0
2014-Sep-20 05:24N 48°51' W 123°27'  
Track history (hours):
 
Tides and Currents Weather Stations Pressure Air Temp Water Temp Dewpoint Dewpoint Depression Visibility Wind Speed Wind Dir Waves Ship Positions

Queen Of Nanaimo

Last reported at 2014-Sep-30 05:13 UTC. Time now 2014-Sep-30 12:04 UTC.
Position N 48°51' W 123°26'.

Length 130 m; draft 4 m.

Type: Ship. MMSI: 316001254.

Date/timePositionNaut miles runAvg speedWind from/ knotsBaromVisibWave heightAir tempDewpointWater temp
2014-Sep-30 05:13N 48°51' W 123°26'5 6.0
2014-Sep-30 04:22N 48°48' W 123°20'4 5.5
2014-Sep-30 03:33N 48°52' W 123°18'10 9.8
2014-Sep-30 02:33N 48°60' W 123°09'1 1.0
2014-Sep-30 01:33N 49°00' W 123°08'11 8.9
2014-Sep-30 00:22N 48°53' W 123°19'2 2.4
2014-Sep-29 23:31N 48°51' W 123°20'4 1.4
2014-Sep-29 20:19N 48°51' W 123°27'6 7.3
2014-Sep-29 19:29N 48°48' W 123°19'4 4.0
2014-Sep-29 18:34N 48°52' W 123°19'9 8.8
2014-Sep-29 17:33N 48°59' W 123°11'3 2.6
2014-Sep-29 16:33N 49°00' W 123°08'1110.5
2014-Sep-29 15:33N 48°52' W 123°18'2 1.9
2014-Sep-29 14:30N 48°51' W 123°20'3 3.5
2014-Sep-29 13:32N 48°50' W 123°25'2 0.4
2014-Sep-29 09:14N 48°51' W 123°27'0 0.0
2014-Sep-29 06:04N 48°51' W 123°27'611.0
2014-Sep-29 05:34N 48°52' W 123°18'1110.9
2014-Sep-29 04:33N 49°00' W 123°08'1211.7
2014-Sep-29 03:31N 48°52' W 123°21'2 1.7
2014-Sep-29 02:33N 48°52' W 123°18'1110.6
2014-Sep-29 01:33N 49°00' W 123°08'8 7.9
2014-Sep-29 00:34N 48°54' W 123°16'5 4.0
2014-Sep-28 23:26N 48°51' W 123°20'5 2.0
2014-Sep-28 21:05N 48°51' W 123°27'610.9
2014-Sep-28 20:33N 48°48' W 123°19'4 3.7
2014-Sep-28 19:33N 48°51' W 123°21'8 8.1
2014-Sep-28 18:33N 48°57' W 123°12'4 4.4
2014-Sep-28 17:33N 49°00' W 123°08'1110.6
2014-Sep-28 16:34N 48°53' W 123°19'2 2.0
2014-Sep-28 15:30N 48°51' W 123°20'4 3.5
2014-Sep-28 14:29N 48°50' W 123°25'1 0.4
2014-Sep-28 11:32N 48°51' W 123°27'0 0.0
2014-Sep-28 06:19N 48°51' W 123°27'5 6.0
2014-Sep-28 05:33N 48°51' W 123°20'4 4.1
2014-Sep-28 04:33N 48°54' W 123°17'9 8.6
2014-Sep-28 03:33N 49°00' W 123°08'0 0.0
2014-Sep-28 02:33N 49°00' W 123°08'1 0.9
2014-Sep-28 01:34N 48°60' W 123°08'10 9.8
2014-Sep-28 00:33N 48°53' W 123°19'5 4.5
2014-Sep-27 23:33N 48°48' W 123°19'5 1.7
2014-Sep-27 20:33N 48°51' W 123°25'1313.1
2014-Sep-27 19:33N 48°59' W 123°10'1 1.5
2014-Sep-27 18:33N 48°57' W 123°11'9 7.8
2014-Sep-27 17:27N 48°51' W 123°20'2 2.2
2014-Sep-27 16:33N 48°53' W 123°19'1110.7
2014-Sep-27 15:33N 49°00' W 123°08'5 4.7
2014-Sep-27 14:34N 48°57' W 123°12'1110.5
2014-Sep-27 13:31N 48°51' W 123°27'0 0.0
2014-Sep-27 10:15N 48°51' W 123°27'0 0.0
2014-Sep-27 09:26N 48°51' W 123°27'0 0.0
2014-Sep-27 08:27N 48°51' W 123°27'0 0.0
2014-Sep-27 06:24N 48°51' W 123°27'1 1.0
2014-Sep-27 05:16N 48°50' W 123°25'5 5.9
2014-Sep-27 04:30N 48°48' W 123°20'5 5.6
2014-Sep-27 03:33N 48°53' W 123°18'1010.0
2014-Sep-27 02:33N 49°00' W 123°08'7 7.5
2014-Sep-27 01:34N 48°55' W 123°15'4 4.0
2014-Sep-27 00:31N 48°52' W 123°19'7 7.7
2014-Sep-26 23:33N 48°58' W 123°13'4 4.2
2014-Sep-26 22:33N 49°00' W 123°08'1413.2
2014-Sep-26 21:30N 48°51' W 123°24'1 0.9
2014-Sep-26 20:09N 48°50' W 123°25'4 6.7
2014-Sep-26 19:30N 48°48' W 123°20'5 5.0
2014-Sep-26 18:34N 48°53' W 123°19'1010.2
2014-Sep-26 17:34N 48°60' W 123°08'0 0.5
2014-Sep-26 16:33N 49°00' W 123°08'1110.6
2014-Sep-26 15:33N 48°53' W 123°19'2 2.0
2014-Sep-26 14:33N 48°51' W 123°20'4 1.5
2014-Sep-26 11:33N 48°51' W 123°27'1 0.2
2014-Sep-26 05:12N 48°50' W 123°25'5 7.0
2014-Sep-26 04:31N 48°48' W 123°19'5 5.1
2014-Sep-26 03:33N 48°53' W 123°19'1010.1
2014-Sep-26 02:33N 48°60' W 123°08'1 0.5
2014-Sep-26 01:33N 49°00' W 123°08'1110.6
2014-Sep-26 00:33N 48°53' W 123°19'2 2.3
2014-Sep-25 23:33N 48°51' W 123°20'3 3.1
2014-Sep-25 22:32N 48°50' W 123°25'4 1.5
2014-Sep-25 19:33N 48°48' W 123°19'4 3.5
2014-Sep-25 18:31N 48°52' W 123°19'9 9.0
2014-Sep-25 17:34N 48°59' W 123°12'3 3.2
2014-Sep-25 16:33N 49°00' W 123°08'1110.6
2014-Sep-25 15:33N 48°53' W 123°19'3 2.6
2014-Sep-25 14:32N 48°50' W 123°20'4 0.8
2014-Sep-25 09:15N 48°51' W 123°27'0 0.0
2014-Sep-25 08:33N 48°51' W 123°27'2 0.5
2014-Sep-25 05:06N 48°50' W 123°25'4 6.5
2014-Sep-25 04:28N 48°48' W 123°19'5 5.3
2014-Sep-25 03:34N 48°53' W 123°19'9 9.2
2014-Sep-25 02:33N 48°59' W 123°09'1 1.4
2014-Sep-25 01:33N 49°00' W 123°08'1110.6
2014-Sep-25 00:33N 48°53' W 123°19'3 2.8
2014-Sep-24 23:32N 48°50' W 123°20'4 4.0
2014-Sep-24 22:26N 48°51' W 123°27'0 0.1
2014-Sep-24 20:25N 48°51' W 123°27'6 6.4
2014-Sep-24 19:29N 48°48' W 123°19'5 5.1
2014-Sep-24 18:34N 48°53' W 123°18'9 9.1
2014-Sep-24 17:33N 48°59' W 123°09'1 1.3
2014-Sep-24 16:34N 49°00' W 123°08'1110.6
2014-Sep-24 15:34N 48°53' W 123°19'2 2.0
2014-Sep-24 14:33N 48°51' W 123°20'4 3.5
2014-Sep-24 13:33N 48°50' W 123°25'2 0.2
2014-Sep-24 05:15N 48°51' W 123°27'6 8.0
2014-Sep-24 04:30N 48°48' W 123°19'5 4.8
2014-Sep-24 03:33N 48°53' W 123°19'9 8.6
2014-Sep-24 02:33N 48°59' W 123°10'2 2.0
2014-Sep-24 01:33N 49°00' W 123°08'1110.6
2014-Sep-24 00:33N 48°53' W 123°19'2 2.0
2014-Sep-23 23:33N 48°51' W 123°20'3 3.3
2014-Sep-23 22:33N 48°49' W 123°24'3 1.0
2014-Sep-23 19:26N 48°48' W 123°19'4 4.2
2014-Sep-23 18:33N 48°51' W 123°21'8 8.2
2014-Sep-23 17:33N 48°58' W 123°13'4 4.5
2014-Sep-23 16:33N 49°00' W 123°08'1110.7
2014-Sep-23 15:33N 48°53' W 123°19'3 2.7
2014-Sep-23 14:31N 48°50' W 123°20'4 3.9
2014-Sep-23 13:32N 48°51' W 123°26'0 0.0
2014-Sep-23 05:07N 48°51' W 123°26'5 8.4
2014-Sep-23 04:30N 48°48' W 123°19'5 5.0
2014-Sep-23 03:34N 48°53' W 123°19'1110.7
2014-Sep-23 02:33N 49°00' W 123°08'8 8.3
2014-Sep-23 01:34N 48°54' W 123°16'4 4.1
2014-Sep-23 00:32N 48°51' W 123°20'3 1.5
2014-Sep-22 22:33N 48°48' W 123°22'3 2.7
2014-Sep-22 21:28N 48°51' W 123°21'4 4.8
2014-Sep-22 20:33N 48°55' W 123°17'1 1.1
2014-Sep-22 19:33N 48°54' W 123°15'1 0.8
2014-Sep-22 18:33N 48°54' W 123°15'4 4.3
2014-Sep-22 17:33N 48°58' W 123°13'4 4.3
2014-Sep-22 16:33N 49°00' W 123°08'1110.5
2014-Sep-22 15:33N 48°52' W 123°18'2 1.9
2014-Sep-22 14:33N 48°51' W 123°20'4 3.7
2014-Sep-22 13:33N 48°50' W 123°25'1 0.5
2014-Sep-22 10:33N 48°51' W 123°27'3 0.5
2014-Sep-22 05:33N 48°51' W 123°23'1313.4
2014-Sep-22 04:33N 49°00' W 123°08'1110.7
2014-Sep-22 03:33N 48°52' W 123°18'1 1.2
2014-Sep-22 02:33N 48°52' W 123°20'1211.8
2014-Sep-22 01:33N 49°00' W 123°08'7 6.6
2014-Sep-22 00:33N 48°55' W 123°14'6 5.7
2014-Sep-21 23:33N 48°52' W 123°21'4 1.3
2014-Sep-21 20:32N 48°48' W 123°19'4 3.6
2014-Sep-21 19:32N 48°52' W 123°20'8 7.7
2014-Sep-21 18:34N 48°57' W 123°12'4 4.3
2014-Sep-21 17:33N 49°00' W 123°08'10 9.6
2014-Sep-21 16:33N 48°53' W 123°18'3 2.6
2014-Sep-21 15:29N 48°51' W 123°20'3 3.7
2014-Sep-21 14:33N 48°49' W 123°24'3 2.9
2014-Sep-21 13:33N 48°51' W 123°27'0 0.0
2014-Sep-21 11:21N 48°51' W 123°27'0 0.0
2014-Sep-21 10:32N 48°51' W 123°27'0 0.0
2014-Sep-21 06:25N 48°51' W 123°27'3 3.7
2014-Sep-21 05:31N 48°51' W 123°22'3 3.4
2014-Sep-21 04:34N 48°53' W 123°18'10 9.8
2014-Sep-21 03:33N 49°00' W 123°08'0 0.0
2014-Sep-21 02:33N 49°00' W 123°08'0 0.0
2014-Sep-21 01:34N 49°00' W 123°08'1110.7
2014-Sep-21 00:33N 48°53' W 123°19'4 3.8
2014-Sep-20 23:33N 48°49' W 123°20'5 3.9
2014-Sep-20 22:18N 48°51' W 123°27'0 0.0
2014-Sep-20 21:25N 48°51' W 123°27'1 1.3
2014-Sep-20 20:32N 48°51' W 123°25'1211.8
2014-Sep-20 19:34N 48°58' W 123°12'2 2.0
2014-Sep-20 18:33N 48°59' W 123°09'11 7.7
2014-Sep-20 17:09N 48°51' W 123°20'2 3.3
2014-Sep-20 16:33N 48°53' W 123°19'1110.7
2014-Sep-20 15:33N 49°00' W 123°08'6 5.9
2014-Sep-20 14:33N 48°56' W 123°13'10 8.6
2014-Sep-20 13:23N 48°51' W 123°27'0 0.0
2014-Sep-20 12:27N 48°51' W 123°27'0 0.0
2014-Sep-20 10:13N 48°51' W 123°27'0 0.0
2014-Sep-20 09:33N 48°51' W 123°27'0 0.0
2014-Sep-20 08:22N 48°51' W 123°27'0 0.0
2014-Sep-20 07:17N 48°51' W 123°27'0 0.0
2014-Sep-20 05:24N 48°51' W 123°27'  

Dump ship's entire track history